Etusivu
METAR-TAF:

METAR-TAF

Lentoasemat :

Vientiane, Laos

Leveyspiiri: 17-57N, Pituuspiiri: 102-34E, korkeus merenpinnasta: 171 m

Tämänhetkinen sää

Tämä raportti tehtiin 10 minuuttia sitten, kello 12.30 UTC
Tuuli 8 kn lännestä/lounaasta
Lämpötila 28°C
Kosteus 74%
Ilmanpaine 1002 hPa
Näkyvyys: 6000 m
Hajonneita pilviä 1600 ft:n korkeudessa
Hajonneita pilviä 8300 ft:n korkeudessa

METAR: VLVT 221230Z 24008KT 6000 BKN016 BKN083 28/23 Q1002 NOSIG

Aika: 19:40 (12:40 UTC)

Sääennuste

Tämä raportti tehtiin 1 tunti ja 40 minuuttia sitten, kello 11.00 UTC
Ennuste voimassa 22. päivästä klo 12 UTC - 23. päivään klo 12 UTC
Tuuli 4 kn lounaasta
Näkyvyys: 6000 m
Hajanaisia pilviä 1600 ft:n korkeudessa
Hajonneita pilviä 8300 ft:n korkeudessa

TAF: VLVT 221100Z 2212/2312 22004KT 6000 SCT016 BKN083

Säähavainnot ja -ennusteet yli 4000 lentoasemalta (METAR- ja TAF-raportit).

Käytössä olevat sääasemat on merkitty karttaan keltaisilla ja punaisilla pisteillä.

Aseta hiiri pisteen päälle nähdäksesi sääaseman nimen.

Klikkaa sitten nähdäksesi säähavainnot ja -ennusteet.

Kartan vaihtaminen: klikkaa mustalla rastilla varustettuja vihreitä pisteitä, niin voit zoomata sisään; viivalla varustettua vihreää pistettä, niin voit zoomata ulos tai vihreitä nuolia, niin pääset viereisille kartoille.


METAR-TAF: